Terminal Aerodrome Forecast
Issued by NWS

Home | Current Version | Previous Version | Text Only | Print | Product List | Glossary On
Versions: 1 2 3 4 5 6 7 8 9 10 11 12 13 14 15 16 17 18 19
000
FTUS41 KBOX 220529
TAFBED
TAF
KBED 220529Z 2206/2306 02012KT P6SM BKN050
     FM220900 02012KT P6SM OVC025
     FM221300 02014G28KT P6SM VCSH OVC020
     FM230100 02010KT P6SM BKN020=

USA.gov is the U.S. government's official web portal to all federal, state and local government web resources and services.